sensor_id;sensor_type;location;lat;lon;timestamp;P1;durP1;ratioP1;P2;durP2;ratioP2
6007;SDS011;3032;49.484;11.112;2023-01-28T00:00:32;6.10;;;4.30;;
6007;SDS011;3032;49.484;11.112;2023-01-28T00:02:58;4.53;;;4.13;;
6007;SDS011;3032;49.484;11.112;2023-01-28T00:05:23;4.67;;;4.10;;
6007;SDS011;3032;49.484;11.112;2023-01-28T00:07:49;4.27;;;3.97;;
6007;SDS011;3032;49.484;11.112;2023-01-28T00:10:15;4.40;;;4.00;;
6007;SDS011;3032;49.484;11.112;2023-01-28T00:12:41;4.90;;;4.20;;
6007;SDS011;3032;49.484;11.112;2023-01-28T00:15:07;4.50;;;4.10;;
6007;SDS011;3032;49.484;11.112;2023-01-28T00:17:34;4.90;;;4.40;;
6007;SDS011;3032;49.484;11.112;2023-01-28T00:20:03;4.95;;;4.55;;
6007;SDS011;3032;49.484;11.112;2023-01-28T00:22:30;4.88;;;4.47;;
6007;SDS011;3032;49.484;11.112;2023-01-28T00:24:56;4.80;;;4.40;;
6007;SDS011;3032;49.484;11.112;2023-01-28T00:27:22;5.05;;;4.65;;
6007;SDS011;3032;49.484;11.112;2023-01-28T00:29:47;4.93;;;4.40;;
6007;SDS011;3032;49.484;11.112;2023-01-28T00:32:13;5.13;;;4.50;;
6007;SDS011;3032;49.484;11.112;2023-01-28T00:34:39;4.77;;;4.37;;
6007;SDS011;3032;49.484;11.112;2023-01-28T00:37:04;5.67;;;5.00;;
6007;SDS011;3032;49.484;11.112;2023-01-28T00:39:30;5.70;;;4.87;;
6007;SDS011;3032;49.484;11.112;2023-01-28T00:41:56;6.47;;;5.03;;
6007;SDS011;3032;49.484;11.112;2023-01-28T00:44:21;7.50;;;4.97;;
6007;SDS011;3032;49.484;11.112;2023-01-28T00:46:47;5.63;;;4.80;;
6007;SDS011;3032;49.484;11.112;2023-01-28T00:49:13;6.37;;;5.07;;
6007;SDS011;3032;49.484;11.112;2023-01-28T00:51:38;5.30;;;4.80;;
6007;SDS011;3032;49.484;11.112;2023-01-28T00:54:04;5.77;;;5.20;;
6007;SDS011;3032;49.484;11.112;2023-01-28T00:56:29;6.33;;;5.40;;
6007;SDS011;3032;49.484;11.112;2023-01-28T00:58:55;5.30;;;4.80;;
6007;SDS011;3032;49.484;11.112;2023-01-28T01:01:22;6.60;;;5.20;;
6007;SDS011;3032;49.484;11.112;2023-01-28T01:03:50;5.20;;;4.70;;
6007;SDS011;3032;49.484;11.112;2023-01-28T01:06:21;6.45;;;5.20;;
6007;SDS011;3032;49.484;11.112;2023-01-28T01:08:48;6.50;;;5.07;;
6007;SDS011;3032;49.484;11.112;2023-01-28T01:11:15;7.03;;;5.88;;
6007;SDS011;3032;49.484;11.112;2023-01-28T01:13:41;6.55;;;5.47;;
6007;SDS011;3032;49.484;11.112;2023-01-28T01:16:08;5.97;;;5.22;;
6007;SDS011;3032;49.484;11.112;2023-01-28T01:18:36;5.68;;;4.90;;
6007;SDS011;3032;49.484;11.112;2023-01-28T01:21:07;7.63;;;5.57;;
6007;SDS011;3032;49.484;11.112;2023-01-28T01:23:38;5.38;;;4.88;;
6007;SDS011;3032;49.484;11.112;2023-01-28T01:26:04;5.97;;;5.37;;
6007;SDS011;3032;49.484;11.112;2023-01-28T01:28:30;5.97;;;5.38;;
6007;SDS011;3032;49.484;11.112;2023-01-28T01:30:59;6.50;;;5.90;;
6007;SDS011;3032;49.484;11.112;2023-01-28T01:33:27;6.70;;;6.00;;
6007;SDS011;3032;49.484;11.112;2023-01-28T01:35:54;6.05;;;5.45;;
6007;SDS011;3032;49.484;11.112;2023-01-28T01:38:20;7.78;;;6.65;;
6007;SDS011;3032;49.484;11.112;2023-01-28T01:40:45;7.80;;;6.50;;
6007;SDS011;3032;49.484;11.112;2023-01-28T01:43:15;6.87;;;5.90;;
6007;SDS011;3032;49.484;11.112;2023-01-28T01:45:42;8.55;;;7.30;;
6007;SDS011;3032;49.484;11.112;2023-01-28T01:48:17;8.23;;;6.47;;
6007;SDS011;3032;49.484;11.112;2023-01-28T01:50:51;7.68;;;6.80;;
6007;SDS011;3032;49.484;11.112;2023-01-28T01:53:39;9.10;;;7.28;;
6007;SDS011;3032;49.484;11.112;2023-01-28T01:56:08;8.10;;;6.50;;
6007;SDS011;3032;49.484;11.112;2023-01-28T01:58:38;10.73;;;7.55;;
6007;SDS011;3032;49.484;11.112;2023-01-28T02:01:05;10.00;;;7.35;;
6007;SDS011;3032;49.484;11.112;2023-01-28T02:03:35;10.10;;;7.67;;
6007;SDS011;3032;49.484;11.112;2023-01-28T02:06:17;10.10;;;7.35;;
6007;SDS011;3032;49.484;11.112;2023-01-28T02:08:44;10.10;;;7.40;;
6007;SDS011;3032;49.484;11.112;2023-01-28T02:11:09;11.07;;;8.10;;
6007;SDS011;3032;49.484;11.112;2023-01-28T02:13:40;11.20;;;8.13;;
6007;SDS011;3032;49.484;11.112;2023-01-28T02:16:08;10.20;;;8.55;;
6007;SDS011;3032;49.484;11.112;2023-01-28T02:18:34;9.70;;;8.20;;
6007;SDS011;3032;49.484;11.112;2023-01-28T02:21:21;10.93;;;8.10;;
6007;SDS011;3032;49.484;11.112;2023-01-28T02:24:18;9.80;;;7.80;;
6007;SDS011;3032;49.484;11.112;2023-01-28T02:29:41;10.65;;;7.97;;
6007;SDS011;3032;49.484;11.112;2023-01-28T02:34:56;12.10;;;8.43;;
6007;SDS011;3032;49.484;11.112;2023-01-28T02:37:33;11.20;;;8.15;;
6007;SDS011;3032;49.484;11.112;2023-01-28T02:40:09;10.23;;;8.30;;
6007;SDS011;3032;49.484;11.112;2023-01-28T02:42:38;11.13;;;8.35;;
6007;SDS011;3032;49.484;11.112;2023-01-28T02:45:15;11.85;;;8.85;;
6007;SDS011;3032;49.484;11.112;2023-01-28T02:47:45;9.60;;;7.95;;
6007;SDS011;3032;49.484;11.112;2023-01-28T02:50:33;11.38;;;8.38;;
6007;SDS011;3032;49.484;11.112;2023-01-28T03:02:09;12.95;;;9.25;;
6007;SDS011;3032;49.484;11.112;2023-01-28T03:04:49;13.23;;;9.70;;
6007;SDS011;3032;49.484;11.112;2023-01-28T03:07:24;13.38;;;9.18;;
6007;SDS011;3032;49.484;11.112;2023-01-28T03:09:53;11.90;;;8.80;;
6007;SDS011;3032;49.484;11.112;2023-01-28T03:12:23;11.50;;;8.93;;
6007;SDS011;3032;49.484;11.112;2023-01-28T03:15:17;13.13;;;8.95;;
6007;SDS011;3032;49.484;11.112;2023-01-28T03:18:12;12.82;;;8.73;;
6007;SDS011;3032;49.484;11.112;2023-01-28T03:24:11;14.57;;;9.48;;
6007;SDS011;3032;49.484;11.112;2023-01-28T03:27:20;12.63;;;9.15;;
6007;SDS011;3032;49.484;11.112;2023-01-28T03:30:10;13.38;;;9.05;;
6007;SDS011;3032;49.484;11.112;2023-01-28T03:32:57;13.27;;;9.88;;
6007;SDS011;3032;49.484;11.112;2023-01-28T03:35:42;13.45;;;9.82;;
6007;SDS011;3032;49.484;11.112;2023-01-28T03:38:28;13.82;;;8.75;;
6007;SDS011;3032;49.484;11.112;2023-01-28T03:40:59;13.80;;;9.55;;
6007;SDS011;3032;49.484;11.112;2023-01-28T03:43:28;12.27;;;9.65;;
6007;SDS011;3032;49.484;11.112;2023-01-28T03:45:54;14.10;;;9.73;;
6007;SDS011;3032;49.484;11.112;2023-01-28T03:48:21;15.33;;;10.17;;
6007;SDS011;3032;49.484;11.112;2023-01-28T03:50:48;12.90;;;9.38;;
6007;SDS011;3032;49.484;11.112;2023-01-28T03:53:14;14.10;;;9.40;;
6007;SDS011;3032;49.484;11.112;2023-01-28T03:55:40;15.57;;;9.90;;
6007;SDS011;3032;49.484;11.112;2023-01-28T03:58:07;12.95;;;9.75;;
6007;SDS011;3032;49.484;11.112;2023-01-28T04:00:33;15.25;;;10.30;;
6007;SDS011;3032;49.484;11.112;2023-01-28T04:03:02;15.13;;;9.98;;
6007;SDS011;3032;49.484;11.112;2023-01-28T04:05:28;17.42;;;11.05;;
6007;SDS011;3032;49.484;11.112;2023-01-28T04:07:54;16.17;;;10.70;;
6007;SDS011;3032;49.484;11.112;2023-01-28T04:10:20;17.27;;;10.93;;
6007;SDS011;3032;49.484;11.112;2023-01-28T04:12:46;16.33;;;10.82;;
6007;SDS011;3032;49.484;11.112;2023-01-28T04:15:14;17.42;;;11.43;;
6007;SDS011;3032;49.484;11.112;2023-01-28T04:17:44;17.65;;;11.23;;
6007;SDS011;3032;49.484;11.112;2023-01-28T04:20:10;13.90;;;10.10;;
6007;SDS011;3032;49.484;11.112;2023-01-28T04:22:36;18.53;;;11.70;;
6007;SDS011;3032;49.484;11.112;2023-01-28T04:25:02;15.70;;;10.85;;
6007;SDS011;3032;49.484;11.112;2023-01-28T04:27:28;16.80;;;11.40;;
6007;SDS011;3032;49.484;11.112;2023-01-28T04:29:53;19.93;;;11.73;;
6007;SDS011;3032;49.484;11.112;2023-01-28T04:32:19;18.17;;;11.20;;
6007;SDS011;3032;49.484;11.112;2023-01-28T04:34:44;20.77;;;12.83;;
6007;SDS011;3032;49.484;11.112;2023-01-28T04:37:10;20.23;;;11.90;;
6007;SDS011;3032;49.484;11.112;2023-01-28T04:39:35;18.90;;;11.53;;
6007;SDS011;3032;49.484;11.112;2023-01-28T04:42:01;18.40;;;12.13;;
6007;SDS011;3032;49.484;11.112;2023-01-28T04:44:26;21.93;;;13.30;;
6007;SDS011;3032;49.484;11.112;2023-01-28T04:46:52;17.90;;;10.70;;
6007;SDS011;3032;49.484;11.112;2023-01-28T04:49:17;21.03;;;12.73;;
6007;SDS011;3032;49.484;11.112;2023-01-28T04:51:43;18.40;;;11.17;;
6007;SDS011;3032;49.484;11.112;2023-01-28T04:54:08;18.30;;;12.00;;
6007;SDS011;3032;49.484;11.112;2023-01-28T04:56:34;20.13;;;11.97;;
6007;SDS011;3032;49.484;11.112;2023-01-28T04:59:00;18.17;;;11.77;;
6007;SDS011;3032;49.484;11.112;2023-01-28T05:01:26;17.88;;;10.95;;
6007;SDS011;3032;49.484;11.112;2023-01-28T05:03:52;17.93;;;11.17;;
6007;SDS011;3032;49.484;11.112;2023-01-28T05:06:18;18.73;;;12.07;;
6007;SDS011;3032;49.484;11.112;2023-01-28T05:08:43;21.17;;;12.70;;
6007;SDS011;3032;49.484;11.112;2023-01-28T05:11:10;19.38;;;12.20;;
6007;SDS011;3032;49.484;11.112;2023-01-28T05:13:37;20.17;;;12.70;;
6007;SDS011;3032;49.484;11.112;2023-01-28T05:16:03;21.25;;;12.43;;
6007;SDS011;3032;49.484;11.112;2023-01-28T05:18:29;19.65;;;11.80;;
6007;SDS011;3032;49.484;11.112;2023-01-28T05:20:55;18.07;;;11.90;;
6007;SDS011;3032;49.484;11.112;2023-01-28T05:23:20;19.17;;;12.67;;
6007;SDS011;3032;49.484;11.112;2023-01-28T05:25:46;18.43;;;12.30;;
6007;SDS011;3032;49.484;11.112;2023-01-28T05:28:11;17.63;;;11.50;;
6007;SDS011;3032;49.484;11.112;2023-01-28T05:30:37;18.30;;;11.97;;
6007;SDS011;3032;49.484;11.112;2023-01-28T05:33:03;18.48;;;12.10;;
6007;SDS011;3032;49.484;11.112;2023-01-28T05:35:29;22.03;;;13.10;;
6007;SDS011;3032;49.484;11.112;2023-01-28T05:37:54;20.80;;;13.20;;
6007;SDS011;3032;49.484;11.112;2023-01-28T05:40:20;20.73;;;12.47;;
6007;SDS011;3032;49.484;11.112;2023-01-28T05:42:45;19.97;;;12.07;;
6007;SDS011;3032;49.484;11.112;2023-01-28T05:45:11;18.40;;;11.30;;
6007;SDS011;3032;49.484;11.112;2023-01-28T05:47:37;22.70;;;12.80;;
6007;SDS011;3032;49.484;11.112;2023-01-28T05:50:03;20.15;;;13.00;;
6007;SDS011;3032;49.484;11.112;2023-01-28T05:52:29;19.02;;;12.70;;
6007;SDS011;3032;49.484;11.112;2023-01-28T05:54:55;23.03;;;13.57;;
6007;SDS011;3032;49.484;11.112;2023-01-28T05:57:20;21.63;;;12.33;;
6007;SDS011;3032;49.484;11.112;2023-01-28T05:59:46;23.30;;;12.97;;
6007;SDS011;3032;49.484;11.112;2023-01-28T06:02:12;23.30;;;12.80;;
6007;SDS011;3032;49.484;11.112;2023-01-28T06:04:37;21.43;;;12.63;;
6007;SDS011;3032;49.484;11.112;2023-01-28T06:07:03;20.43;;;12.20;;
6007;SDS011;3032;49.484;11.112;2023-01-28T06:09:29;18.37;;;12.30;;
6007;SDS011;3032;49.484;11.112;2023-01-28T06:11:54;20.60;;;12.13;;
6007;SDS011;3032;49.484;11.112;2023-01-28T06:14:20;19.57;;;12.67;;
6007;SDS011;3032;49.484;11.112;2023-01-28T06:16:45;22.27;;;12.83;;
6007;SDS011;3032;49.484;11.112;2023-01-28T06:19:11;22.03;;;13.30;;
6007;SDS011;3032;49.484;11.112;2023-01-28T06:21:36;20.70;;;12.30;;
6007;SDS011;3032;49.484;11.112;2023-01-28T06:24:02;21.47;;;13.00;;
6007;SDS011;3032;49.484;11.112;2023-01-28T06:26:28;21.80;;;12.90;;
6007;SDS011;3032;49.484;11.112;2023-01-28T06:28:54;22.17;;;13.50;;
6007;SDS011;3032;49.484;11.112;2023-01-28T06:31:20;21.07;;;12.40;;
6007;SDS011;3032;49.484;11.112;2023-01-28T06:33:45;20.77;;;13.27;;
6007;SDS011;3032;49.484;11.112;2023-01-28T06:36:11;21.50;;;13.40;;
6007;SDS011;3032;49.484;11.112;2023-01-28T06:38:37;21.90;;;14.60;;
6007;SDS011;3032;49.484;11.112;2023-01-28T06:41:02;23.37;;;13.70;;
6007;SDS011;3032;49.484;11.112;2023-01-28T06:43:28;20.00;;;12.90;;
6007;SDS011;3032;49.484;11.112;2023-01-28T06:45:54;21.95;;;13.40;;
6007;SDS011;3032;49.484;11.112;2023-01-28T06:48:24;21.83;;;14.23;;
6007;SDS011;3032;49.484;11.112;2023-01-28T06:50:50;21.60;;;13.38;;
6007;SDS011;3032;49.484;11.112;2023-01-28T06:53:16;25.07;;;13.70;;
6007;SDS011;3032;49.484;11.112;2023-01-28T06:55:42;23.17;;;14.23;;
6007;SDS011;3032;49.484;11.112;2023-01-28T06:58:08;24.40;;;14.70;;
6007;SDS011;3032;49.484;11.112;2023-01-28T07:00:33;21.10;;;13.30;;
6007;SDS011;3032;49.484;11.112;2023-01-28T07:02:59;21.83;;;13.70;;
6007;SDS011;3032;49.484;11.112;2023-01-28T07:05:25;22.77;;;13.80;;
6007;SDS011;3032;49.484;11.112;2023-01-28T07:07:50;24.83;;;14.00;;
6007;SDS011;3032;49.484;11.112;2023-01-28T07:10:16;22.03;;;12.90;;
6007;SDS011;3032;49.484;11.112;2023-01-28T07:12:42;24.20;;;13.37;;
6007;SDS011;3032;49.484;11.112;2023-01-28T07:15:07;18.90;;;12.23;;
6007;SDS011;3032;49.484;11.112;2023-01-28T07:17:35;23.08;;;13.02;;
6007;SDS011;3032;49.484;11.112;2023-01-28T07:20:03;22.23;;;12.73;;
6007;SDS011;3032;49.484;11.112;2023-01-28T07:22:29;16.02;;;11.45;;
6007;SDS011;3032;49.484;11.112;2023-01-28T07:24:55;18.00;;;11.27;;
6007;SDS011;3032;49.484;11.112;2023-01-28T07:27:22;16.95;;;10.80;;
6007;SDS011;3032;49.484;11.112;2023-01-28T07:29:48;19.67;;;11.60;;
6007;SDS011;3032;49.484;11.112;2023-01-28T07:32:13;17.93;;;10.80;;
6007;SDS011;3032;49.484;11.112;2023-01-28T07:34:39;18.57;;;10.23;;
6007;SDS011;3032;49.484;11.112;2023-01-28T07:37:07;18.25;;;11.73;;
6007;SDS011;3032;49.484;11.112;2023-01-28T07:39:33;16.80;;;11.27;;
6007;SDS011;3032;49.484;11.112;2023-01-28T07:41:58;15.60;;;10.17;;
6007;SDS011;3032;49.484;11.112;2023-01-28T07:44:24;12.95;;;8.63;;
6007;SDS011;3032;49.484;11.112;2023-01-28T07:46:50;13.10;;;8.40;;
6007;SDS011;3032;49.484;11.112;2023-01-28T07:49:16;14.27;;;8.73;;
6007;SDS011;3032;49.484;11.112;2023-01-28T07:51:41;13.70;;;8.80;;
6007;SDS011;3032;49.484;11.112;2023-01-28T07:54:09;13.75;;;8.25;;
6007;SDS011;3032;49.484;11.112;2023-01-28T07:56:34;11.83;;;8.43;;
6007;SDS011;3032;49.484;11.112;2023-01-28T07:59:00;13.60;;;8.53;;
6007;SDS011;3032;49.484;11.112;2023-01-28T08:01:26;13.13;;;7.97;;
6007;SDS011;3032;49.484;11.112;2023-01-28T08:03:51;14.40;;;8.83;;
6007;SDS011;3032;49.484;11.112;2023-01-28T08:06:17;12.93;;;9.03;;
6007;SDS011;3032;49.484;11.112;2023-01-28T08:08:42;14.57;;;8.63;;
6007;SDS011;3032;49.484;11.112;2023-01-28T08:11:08;14.13;;;9.00;;
6007;SDS011;3032;49.484;11.112;2023-01-28T08:13:35;15.60;;;9.07;;
6007;SDS011;3032;49.484;11.112;2023-01-28T08:16:01;16.50;;;9.37;;
6007;SDS011;3032;49.484;11.112;2023-01-28T08:18:27;11.77;;;8.20;;
6007;SDS011;3032;49.484;11.112;2023-01-28T08:20:56;12.93;;;8.23;;
6007;SDS011;3032;49.484;11.112;2023-01-28T08:23:23;13.13;;;8.02;;
6007;SDS011;3032;49.484;11.112;2023-01-28T08:25:51;10.95;;;7.80;;
6007;SDS011;3032;49.484;11.112;2023-01-28T08:28:17;11.65;;;7.80;;
6007;SDS011;3032;49.484;11.112;2023-01-28T08:30:43;9.43;;;7.15;;
6007;SDS011;3032;49.484;11.112;2023-01-28T08:33:10;8.15;;;6.30;;
6007;SDS011;3032;49.484;11.112;2023-01-28T08:35:37;8.45;;;6.05;;
6007;SDS011;3032;49.484;11.112;2023-01-28T08:38:04;7.82;;;5.55;;
6007;SDS011;3032;49.484;11.112;2023-01-28T08:40:31;6.95;;;5.80;;
6007;SDS011;3032;49.484;11.112;2023-01-28T08:42:57;8.35;;;6.07;;
6007;SDS011;3032;49.484;11.112;2023-01-28T08:45:23;8.20;;;5.80;;
6007;SDS011;3032;49.484;11.112;2023-01-28T08:47:51;5.65;;;4.88;;
6007;SDS011;3032;49.484;11.112;2023-01-28T08:50:19;4.28;;;3.97;;
6007;SDS011;3032;49.484;11.112;2023-01-28T08:52:46;5.50;;;5.00;;
6007;SDS011;3032;49.484;11.112;2023-01-28T08:55:13;3.42;;;3.20;;
6007;SDS011;3032;49.484;11.112;2023-01-28T08:57:40;3.42;;;3.13;;
6007;SDS011;3032;49.484;11.112;2023-01-28T09:00:06;3.55;;;3.25;;
6007;SDS011;3032;49.484;11.112;2023-01-28T09:02:34;3.20;;;3.00;;
6007;SDS011;3032;49.484;11.112;2023-01-28T09:05:00;3.42;;;3.22;;
6007;SDS011;3032;49.484;11.112;2023-01-28T09:07:26;3.67;;;3.37;;
6007;SDS011;3032;49.484;11.112;2023-01-28T09:09:55;3.50;;;3.20;;
6007;SDS011;3032;49.484;11.112;2023-01-28T09:12:21;3.87;;;3.57;;
6007;SDS011;3032;49.484;11.112;2023-01-28T09:14:46;4.60;;;3.57;;
6007;SDS011;3032;49.484;11.112;2023-01-28T09:17:12;5.40;;;3.00;;
6007;SDS011;3032;49.484;11.112;2023-01-28T09:19:38;3.70;;;3.33;;
6007;SDS011;3032;49.484;11.112;2023-01-28T09:22:03;3.13;;;2.93;;
6007;SDS011;3032;49.484;11.112;2023-01-28T09:24:29;3.00;;;2.80;;
6007;SDS011;3032;49.484;11.112;2023-01-28T09:26:55;3.30;;;3.10;;
6007;SDS011;3032;49.484;11.112;2023-01-28T09:29:21;4.03;;;3.63;;
6007;SDS011;3032;49.484;11.112;2023-01-28T09:31:46;3.10;;;2.90;;
6007;SDS011;3032;49.484;11.112;2023-01-28T09:34:12;3.72;;;2.95;;
6007;SDS011;3032;49.484;11.112;2023-01-28T09:36:38;3.63;;;3.30;;
6007;SDS011;3032;49.484;11.112;2023-01-28T09:39:04;4.10;;;3.70;;
6007;SDS011;3032;49.484;11.112;2023-01-28T09:47:21;2.58;;;2.47;;
6007;SDS011;3032;49.484;11.112;2023-01-28T09:49:52;2.88;;;2.67;;
6007;SDS011;3032;49.484;11.112;2023-01-28T09:52:21;2.65;;;2.30;;
6007;SDS011;3032;49.484;11.112;2023-01-28T09:54:58;2.60;;;2.50;;
6007;SDS011;3032;49.484;11.112;2023-01-28T09:57:36;2.70;;;2.53;;
6007;SDS011;3032;49.484;11.112;2023-01-28T10:00:11;2.50;;;2.40;;
6007;SDS011;3032;49.484;11.112;2023-01-28T10:16:05;2.83;;;2.58;;
6007;SDS011;3032;49.484;11.112;2023-01-28T10:21:20;2.58;;;2.30;;
6007;SDS011;3032;49.484;11.112;2023-01-28T10:23:52;3.20;;;2.50;;
6007;SDS011;3032;49.484;11.112;2023-01-28T10:26:23;3.60;;;2.45;;
6007;SDS011;3032;49.484;11.112;2023-01-28T10:28:57;3.67;;;3.38;;
6007;SDS011;3032;49.484;11.112;2023-01-28T10:31:30;4.82;;;2.60;;
6007;SDS011;3032;49.484;11.112;2023-01-28T10:33:59;3.50;;;2.55;;
6007;SDS011;3032;49.484;11.112;2023-01-28T10:36:25;2.13;;;1.80;;
6007;SDS011;3032;49.484;11.112;2023-01-28T10:38:51;5.73;;;2.40;;
6007;SDS011;3032;49.484;11.112;2023-01-28T10:41:19;2.50;;;2.30;;
6007;SDS011;3032;49.484;11.112;2023-01-28T10:43:46;2.38;;;2.28;;
6007;SDS011;3032;49.484;11.112;2023-01-28T10:46:15;2.55;;;2.35;;
6007;SDS011;3032;49.484;11.112;2023-01-28T10:51:12;2.70;;;2.60;;
6007;SDS011;3032;49.484;11.112;2023-01-28T11:01:25;2.30;;;2.17;;
6007;SDS011;3032;49.484;11.112;2023-01-28T11:04:03;2.65;;;2.20;;
6007;SDS011;3032;49.484;11.112;2023-01-28T11:06:29;2.72;;;2.33;;
6007;SDS011;3032;49.484;11.112;2023-01-28T11:08:55;3.83;;;2.60;;
6007;SDS011;3032;49.484;11.112;2023-01-28T11:11:23;2.07;;;1.97;;
6007;SDS011;3032;49.484;11.112;2023-01-28T11:13:50;2.00;;;1.90;;
6007;SDS011;3032;49.484;11.112;2023-01-28T11:16:18;2.10;;;2.00;;
6007;SDS011;3032;49.484;11.112;2023-01-28T11:18:54;2.20;;;2.10;;
6007;SDS011;3032;49.484;11.112;2023-01-28T11:21:25;2.10;;;2.00;;
6007;SDS011;3032;49.484;11.112;2023-01-28T11:23:53;3.22;;;2.25;;
6007;SDS011;3032;49.484;11.112;2023-01-28T11:26:23;2.15;;;2.05;;
6007;SDS011;3032;49.484;11.112;2023-01-28T11:28:54;1.60;;;1.60;;
6007;SDS011;3032;49.484;11.112;2023-01-28T11:31:20;2.00;;;1.90;;
6007;SDS011;3032;49.484;11.112;2023-01-28T11:36:24;2.20;;;2.10;;
6007;SDS011;3032;49.484;11.112;2023-01-28T11:41:31;4.03;;;2.00;;
6007;SDS011;3032;49.484;11.112;2023-01-28T11:43:59;1.92;;;1.83;;
6007;SDS011;3032;49.484;11.112;2023-01-28T11:46:42;2.15;;;1.90;;
6007;SDS011;3032;49.484;11.112;2023-01-28T11:57:43;2.00;;;1.83;;
6007;SDS011;3032;49.484;11.112;2023-01-28T12:03:20;1.98;;;1.63;;
6007;SDS011;3032;49.484;11.112;2023-01-28T12:05:56;1.77;;;1.67;;
6007;SDS011;3032;49.484;11.112;2023-01-28T12:14:21;2.10;;;1.88;;
6007;SDS011;3032;49.484;11.112;2023-01-28T12:17:22;2.55;;;2.05;;
6007;SDS011;3032;49.484;11.112;2023-01-28T12:22:58;2.25;;;1.70;;
6007;SDS011;3032;49.484;11.112;2023-01-28T12:39:10;2.30;;;2.20;;
6007;SDS011;3032;49.484;11.112;2023-01-28T12:41:50;1.98;;;1.88;;
6007;SDS011;3032;49.484;11.112;2023-01-28T12:44:33;2.20;;;2.10;;
6007;SDS011;3032;49.484;11.112;2023-01-28T12:47:05;2.17;;;2.08;;
6007;SDS011;3032;49.484;11.112;2023-01-28T12:49:35;2.45;;;2.35;;
6007;SDS011;3032;49.484;11.112;2023-01-28T12:52:14;3.05;;;2.50;;
6007;SDS011;3032;49.484;11.112;2023-01-28T12:54:58;2.25;;;2.15;;
6007;SDS011;3032;49.484;11.112;2023-01-28T12:57:35;2.28;;;2.10;;
6007;SDS011;3032;49.484;11.112;2023-01-28T13:08:55;2.05;;;1.95;;
6007;SDS011;3032;49.484;11.112;2023-01-28T13:11:29;3.20;;;2.25;;
6007;SDS011;3032;49.484;11.112;2023-01-28T13:13:59;3.05;;;2.40;;
6007;SDS011;3032;49.484;11.112;2023-01-28T13:16:25;2.42;;;2.33;;
6007;SDS011;3032;49.484;11.112;2023-01-28T13:18:51;2.60;;;2.40;;
6007;SDS011;3032;49.484;11.112;2023-01-28T13:23:48;2.10;;;2.00;;
6007;SDS011;3032;49.484;11.112;2023-01-28T13:28:47;2.40;;;2.20;;
6007;SDS011;3032;49.484;11.112;2023-01-28T13:31:18;2.35;;;2.17;;
6007;SDS011;3032;49.484;11.112;2023-01-28T13:33:46;2.13;;;2.03;;
6007;SDS011;3032;49.484;11.112;2023-01-28T13:36:19;2.38;;;2.28;;
6007;SDS011;3032;49.484;11.112;2023-01-28T13:46:54;2.25;;;2.05;;
6007;SDS011;3032;49.484;11.112;2023-01-28T13:49:32;2.58;;;2.38;;
6007;SDS011;3032;49.484;11.112;2023-01-28T13:54:49;2.30;;;2.20;;
6007;SDS011;3032;49.484;11.112;2023-01-28T14:09:16;2.13;;;2.03;;
6007;SDS011;3032;49.484;11.112;2023-01-28T14:17:50;2.42;;;2.33;;
6007;SDS011;3032;49.484;11.112;2023-01-28T14:22:43;2.70;;;2.50;;
6007;SDS011;3032;49.484;11.112;2023-01-28T14:25:13;2.90;;;2.70;;
6007;SDS011;3032;49.484;11.112;2023-01-28T14:27:46;2.30;;;2.10;;
6007;SDS011;3032;49.484;11.112;2023-01-28T14:32:45;4.20;;;2.60;;
6007;SDS011;3032;49.484;11.112;2023-01-28T14:35:18;3.40;;;3.10;;
6007;SDS011;3032;49.484;11.112;2023-01-28T14:37:51;3.10;;;2.90;;
6007;SDS011;3032;49.484;11.112;2023-01-28T14:40:16;3.03;;;2.83;;
6007;SDS011;3032;49.484;11.112;2023-01-28T14:42:47;2.88;;;2.67;;
6007;SDS011;3032;49.484;11.112;2023-01-28T14:59:25;3.72;;;3.10;;
6007;SDS011;3032;49.484;11.112;2023-01-28T15:01:57;3.17;;;2.97;;
6007;SDS011;3032;49.484;11.112;2023-01-28T15:06:56;2.90;;;2.70;;
6007;SDS011;3032;49.484;11.112;2023-01-28T15:09:26;3.22;;;3.03;;
6007;SDS011;3032;49.484;11.112;2023-01-28T15:11:53;2.80;;;2.60;;
6007;SDS011;3032;49.484;11.112;2023-01-28T15:14:24;4.63;;;3.83;;
6007;SDS011;3032;49.484;11.112;2023-01-28T15:16:52;5.18;;;2.90;;
6007;SDS011;3032;49.484;11.112;2023-01-28T15:19:20;3.67;;;3.38;;
6007;SDS011;3032;49.484;11.112;2023-01-28T15:21:56;3.00;;;2.80;;
6007;SDS011;3032;49.484;11.112;2023-01-28T15:24:28;3.10;;;2.80;;
6007;SDS011;3032;49.484;11.112;2023-01-28T15:26:55;3.22;;;2.92;;
6007;SDS011;3032;49.484;11.112;2023-01-28T15:29:42;4.43;;;4.03;;
6007;SDS011;3032;49.484;11.112;2023-01-28T15:32:21;4.00;;;3.60;;
6007;SDS011;3032;49.484;11.112;2023-01-28T15:34:51;3.95;;;3.65;;
6007;SDS011;3032;49.484;11.112;2023-01-28T15:37:17;4.70;;;3.70;;
6007;SDS011;3032;49.484;11.112;2023-01-28T15:39:43;3.25;;;2.95;;
6007;SDS011;3032;49.484;11.112;2023-01-28T15:42:19;3.13;;;2.93;;
6007;SDS011;3032;49.484;11.112;2023-01-28T15:44:50;3.60;;;3.30;;
6007;SDS011;3032;49.484;11.112;2023-01-28T15:47:21;4.20;;;3.80;;
6007;SDS011;3032;49.484;11.112;2023-01-28T15:49:50;3.80;;;3.50;;
6007;SDS011;3032;49.484;11.112;2023-01-28T15:52:27;3.33;;;3.13;;
6007;SDS011;3032;49.484;11.112;2023-01-28T15:55:01;5.18;;;4.30;;
6007;SDS011;3032;49.484;11.112;2023-01-28T15:57:29;3.75;;;3.45;;
6007;SDS011;3032;49.484;11.112;2023-01-28T16:00:08;3.65;;;3.35;;
6007;SDS011;3032;49.484;11.112;2023-01-28T16:02:43;3.70;;;3.40;;
6007;SDS011;3032;49.484;11.112;2023-01-28T16:07:50;3.15;;;2.95;;
6007;SDS011;3032;49.484;11.112;2023-01-28T16:10:19;3.70;;;3.40;;
6007;SDS011;3032;49.484;11.112;2023-01-28T16:13:05;3.53;;;3.22;;
6007;SDS011;3032;49.484;11.112;2023-01-28T16:15:44;3.90;;;3.60;;
6007;SDS011;3032;49.484;11.112;2023-01-28T16:18:37;3.42;;;3.22;;
6007;SDS011;3032;49.484;11.112;2023-01-28T16:21:04;3.55;;;3.35;;
6007;SDS011;3032;49.484;11.112;2023-01-28T16:23:33;3.67;;;3.38;;
6007;SDS011;3032;49.484;11.112;2023-01-28T16:25:59;3.60;;;3.30;;
6007;SDS011;3032;49.484;11.112;2023-01-28T16:28:27;3.80;;;3.50;;
6007;SDS011;3032;49.484;11.112;2023-01-28T16:30:56;3.60;;;3.30;;
6007;SDS011;3032;49.484;11.112;2023-01-28T16:33:25;3.67;;;3.35;;
6007;SDS011;3032;49.484;11.112;2023-01-28T16:35:51;4.20;;;3.90;;
6007;SDS011;3032;49.484;11.112;2023-01-28T16:38:17;4.43;;;3.47;;
6007;SDS011;3032;49.484;11.112;2023-01-28T16:40:46;3.40;;;3.20;;
6007;SDS011;3032;49.484;11.112;2023-01-28T16:43:12;5.25;;;4.05;;
6007;SDS011;3032;49.484;11.112;2023-01-28T16:45:40;4.93;;;3.90;;
6007;SDS011;3032;49.484;11.112;2023-01-28T16:48:06;4.82;;;3.70;;
6007;SDS011;3032;49.484;11.112;2023-01-28T16:50:31;4.43;;;4.03;;
6007;SDS011;3032;49.484;11.112;2023-01-28T16:52:58;4.72;;;4.10;;
6007;SDS011;3032;49.484;11.112;2023-01-28T16:55:24;4.43;;;4.03;;
6007;SDS011;3032;49.484;11.112;2023-01-28T16:57:52;5.72;;;3.80;;
6007;SDS011;3032;49.484;11.112;2023-01-28T17:00:23;5.50;;;3.95;;
6007;SDS011;3032;49.484;11.112;2023-01-28T17:02:51;4.22;;;3.83;;
6007;SDS011;3032;49.484;11.112;2023-01-28T17:05:18;4.28;;;3.92;;
6007;SDS011;3032;49.484;11.112;2023-01-28T17:07:45;7.60;;;4.50;;
6007;SDS011;3032;49.484;11.112;2023-01-28T17:10:17;5.15;;;4.10;;
6007;SDS011;3032;49.484;11.112;2023-01-28T17:12:44;3.85;;;3.65;;
6007;SDS011;3032;49.484;11.112;2023-01-28T17:15:12;3.78;;;3.35;;
6007;SDS011;3032;49.484;11.112;2023-01-28T17:17:37;6.93;;;4.37;;
6007;SDS011;3032;49.484;11.112;2023-01-28T17:20:03;4.00;;;3.70;;
6007;SDS011;3032;49.484;11.112;2023-01-28T17:22:30;4.30;;;3.90;;
6007;SDS011;3032;49.484;11.112;2023-01-28T17:24:55;4.97;;;4.50;;
6007;SDS011;3032;49.484;11.112;2023-01-28T17:27:21;4.47;;;4.07;;
6007;SDS011;3032;49.484;11.112;2023-01-28T17:29:46;6.03;;;4.30;;
6007;SDS011;3032;49.484;11.112;2023-01-28T17:32:12;5.10;;;4.60;;
6007;SDS011;3032;49.484;11.112;2023-01-28T17:34:37;4.13;;;3.73;;
6007;SDS011;3032;49.484;11.112;2023-01-28T17:37:03;5.17;;;4.70;;
6007;SDS011;3032;49.484;11.112;2023-01-28T17:39:28;5.77;;;4.20;;